Time;durP1;ratioP1;P1;durP2;ratioP2;P2;SDS_P1;SDS_P2;PMS_P1;PMS_P2;Temp;Humidity;BMP_temperature;BMP_pressure;BME280_temperature;BME280_humidity;BME280_pressure;Samples;Min_cycle;Max_cycle;Signal;HPM_P1;HPM_P2
2023/05/27 00:02:21;;;;;;;;;;;;;;;;;;5034606;28;19999;-24
2023/05/27 00:04:47;;;;;;;;;;;;;;;;;;5035231;28;19929;-21
2023/05/27 00:07:13;;;;;;;;;;;;;;;;;;5034474;28;20363;-22
2023/05/27 00:09:39;;;;;;;;;;;;;;;;;;5034426;28;19986;-27
2023/05/27 00:12:05;;;;;;;;;;;;;;;;;;5034506;28;19974;-26
2023/05/27 00:14:31;;;;;;;;;;;;;;;;;;5034658;28;19917;-30
2023/05/27 00:16:57;;;;;;;;;;;;;;;;;;5034613;28;20059;-23
2023/05/27 00:19:24;;;;;;;;;;;;;;;;;;5034336;28;20355;-23
2023/05/27 00:21:53;;;;;;;;;;;;;;;;;;5034266;28;19909;-25
2023/05/27 00:24:19;;;;;;;;;;;;;;;;;;5034504;28;20024;-25
2023/05/27 00:26:44;;;;;;;;;;;;;;;;;;5034505;28;20212;-29
2023/05/27 00:29:10;;;;;;;;;;;;;;;;;;5034249;28;20328;-26
2023/05/27 00:31:36;;;;;;;;;;;;;;;;;;5034233;28;20341;-23
2023/05/27 00:34:02;;;;;;;;;;;;;;;;;;5034148;28;19968;-26
2023/05/27 00:36:28;;;;;;;;;;;;;;;;;;5034453;28;19913;-29
2023/05/27 00:38:54;;;;;;;;;;;;;;;;;;5034414;28;20001;-24
2023/05/27 00:41:20;;;;;;;;;;;;;;;;;;5034175;28;19909;-26
2023/05/27 00:43:46;;;;;;;;;;;;;;;;;;5037442;28;20248;-26
2023/05/27 00:46:12;;;;;;;;;;;;;;;;;;5037796;28;19909;-22
2023/05/27 00:48:38;;;;;;;;;;;;;;;;;;5037783;28;19909;-28
2023/05/27 00:51:05;;;;;;;;;;;;;;;;;;5037754;28;20287;-25
2023/05/27 00:53:31;;;;;;;;;;;;;;;;;;5037923;28;20276;-25
2023/05/27 00:55:56;;;;;;;;;;;;;;;;;;5037617;28;19913;-24
2023/05/27 00:58:23;;;;;;;;;;;;;;;;;;5037843;28;20002;-22
2023/05/27 01:00:49;;;;;;;;;;;;;;;;;;5037593;28;19921;-26
2023/05/27 01:03:16;;;;;;;;;;;;;;;;;;5037084;28;19932;-23
2023/05/27 01:05:42;;;;;;;;;;;;;;;;;;5037820;28;20354;-23
2023/05/27 01:08:10;;;;;;;;;;;;;;;;;;5037435;28;19909;-21
2023/05/27 01:10:36;;;;;;;;;;;;;;;;;;5037628;28;19913;-26
2023/05/27 01:13:02;;;;;;;;;;;;;;;;;;5037416;28;19920;-23
2023/05/27 01:15:28;;;;;;;;;;;;;;;;;;5037288;28;19945;-24
2023/05/27 01:17:54;;;;;;;;;;;;;;;;;;5037532;28;19920;-26
2023/05/27 01:20:20;;;;;;;;;;;;;;;;;;5037465;28;19917;-25
2023/05/27 01:22:47;;;;;;;;;;;;;;;;;;5036987;28;19978;-28
2023/05/27 01:25:14;;;;;;;;;;;;;;;;;;5037168;28;19913;-21
2023/05/27 01:27:42;;;;;;;;;;;;;;;;;;5037354;28;20011;-27
2023/05/27 01:30:08;;;;;;;;;;;;;;;;;;5036953;28;19917;-25
2023/05/27 01:32:34;;;;;;;;;;;;;;;;;;5037154;28;19909;-22
2023/05/27 01:35:00;;;;;;;;;;;;;;;;;;5035961;28;19920;-21
2023/05/27 01:37:26;;;;;;;;;;;;;;;;;;5036792;28;19920;-25
2023/05/27 01:39:52;;;;;;;;;;;;;;;;;;5036781;28;19973;-24
2023/05/27 01:42:18;;;;;;;;;;;;;;;;;;5035737;28;19909;-27
2023/05/27 01:44:44;;;;;;;;;;;;;;;;;;5036760;28;19994;-22
2023/05/27 01:47:09;;;;;;;;;;;;;;;;;;5036703;28;19916;-25
2023/05/27 01:49:35;;;;;;;;;;;;;;;;;;5036622;28;19909;-26
2023/05/27 01:52:01;;;;;;;;;;;;;;;;;;5036542;28;19948;-23
2023/05/27 01:54:27;;;;;;;;;;;;;;;;;;5035871;28;19948;-27
2023/05/27 01:56:53;;;;;;;;;;;;;;;;;;5036496;28;19932;-28
2023/05/27 01:59:19;;;;;;;;;;;;;;;;;;5036469;28;20264;-25
2023/05/27 02:01:45;;;;;;;;;;;;;;;;;;5036620;28;19909;-23
2023/05/27 02:04:11;;;;;;;;;;;;;;;;;;5035979;28;19921;-25
2023/05/27 02:06:37;;;;;;;;;;;;;;;;;;5036259;28;19909;-24
2023/05/27 02:09:04;;;;;;;;;;;;;;;;;;5036102;28;20004;-24
2023/05/27 02:11:30;;;;;;;;;;;;;;;;;;5036254;28;19909;-25
2023/05/27 02:13:56;;;;;;;;;;;;;;;;;;5036080;28;19917;-30
2023/05/27 02:16:22;;;;;;;;;;;;;;;;;;5036143;28;19916;-25
2023/05/27 02:18:48;;;;;;;;;;;;;;;;;;5036336;28;20012;-25
2023/05/27 02:21:14;;;;;;;;;;;;;;;;;;5036062;28;19909;-26
2023/05/27 02:23:40;;;;;;;;;;;;;;;;;;5035871;28;20354;-22
2023/05/27 02:26:06;;;;;;;;;;;;;;;;;;5036163;28;20007;-26
2023/05/27 02:28:32;;;;;;;;;;;;;;;;;;5035817;28;19959;-25
2023/05/27 02:30:58;;;;;;;;;;;;;;;;;;5035822;28;19920;-23
2023/05/27 02:33:24;;;;;;;;;;;;;;;;;;5035725;28;19935;-22
2023/05/27 02:35:50;;;;;;;;;;;;;;;;;;5036037;28;20252;-21
2023/05/27 02:38:16;;;;;;;;;;;;;;;;;;5035758;28;19924;-22
2023/05/27 02:40:42;;;;;;;;;;;;;;;;;;5035668;28;19909;-24
2023/05/27 02:43:08;;;;;;;;;;;;;;;;;;5035739;28;19971;-25
2023/05/27 02:45:34;;;;;;;;;;;;;;;;;;5035885;28;19920;-25
2023/05/27 02:48:03;;;;;;;;;;;;;;;;;;5035727;28;20217;-27
2023/05/27 02:50:29;;;;;;;;;;;;;;;;;;5035539;28;20367;-23
2023/05/27 02:52:55;;;;;;;;;;;;;;;;;;5035373;28;20259;-23
2023/05/27 02:55:21;;;;;;;;;;;;;;;;;;5035460;28;19970;-23
2023/05/27 02:57:47;;;;;;;;;;;;;;;;;;5035415;28;20237;-21
2023/05/27 03:00:13;;;;;;;;;;;;;;;;;;5035344;28;19909;-25
2023/05/27 03:02:39;;;;;;;;;;;;;;;;;;5035189;28;20012;-22
2023/05/27 03:05:05;;;;;;;;;;;;;;;;;;5034528;28;19921;-23
2023/05/27 03:07:31;;;;;;;;;;;;;;;;;;5034802;28;19909;-22
2023/05/27 03:09:57;;;;;;;;;;;;;;;;;;5035468;28;19927;-24
2023/05/27 03:12:23;;;;;;;;;;;;;;;;;;5035336;28;19990;-20
2023/05/27 03:14:49;;;;;;;;;;;;;;;;;;5035337;28;19913;-21
2023/05/27 03:17:15;;;;;;;;;;;;;;;;;;5035069;28;20276;-22
2023/05/27 03:19:41;;;;;;;;;;;;;;;;;;5035013;28;20251;-22
2023/05/27 03:22:07;;;;;;;;;;;;;;;;;;5035158;28;20249;-24
2023/05/27 03:24:33;;;;;;;;;;;;;;;;;;5034869;28;19920;-25
2023/05/27 03:26:59;;;;;;;;;;;;;;;;;;5035134;28;19955;-20
2023/05/27 03:29:25;;;;;;;;;;;;;;;;;;5035131;28;19916;-24
2023/05/27 03:31:51;;;;;;;;;;;;;;;;;;5034717;28;19909;-25
2023/05/27 03:34:17;;;;;;;;;;;;;;;;;;5034777;28;20336;-24
2023/05/27 03:36:46;;;;;;;;;;;;;;;;;;5034788;28;19916;-25
2023/05/27 03:39:12;;;;;;;;;;;;;;;;;;5034741;28;19992;-25
2023/05/27 03:41:38;;;;;;;;;;;;;;;;;;5034699;28;20003;-25
2023/05/27 03:44:04;;;;;;;;;;;;;;;;;;5034809;28;19932;-24
2023/05/27 03:46:30;;;;;;;;;;;;;;;;;;5034642;28;19909;-22
2023/05/27 03:48:55;;;;;;;;;;;;;;;;;;5034928;28;20267;-23
2023/05/27 03:51:21;;;;;;;;;;;;;;;;;;5034632;28;20264;-21
2023/05/27 03:53:48;;;;;;;;;;;;;;;;;;5035196;28;19909;-25
2023/05/27 03:56:14;;;;;;;;;;;;;;;;;;5034621;28;19943;-25
2023/05/27 03:58:40;;;;;;;;;;;;;;;;;;5034400;28;20000;-22
2023/05/27 04:01:06;;;;;;;;;;;;;;;;;;5034533;28;19919;-24
2023/05/27 04:03:31;;;;;;;;;;;;;;;;;;5034363;28;20020;-22
2023/05/27 04:05:57;;;;;;;;;;;;;;;;;;5034387;28;19920;-26
2023/05/27 04:08:25;;;;;;;;;;;;;;;;;;5034456;28;19909;-26
2023/05/27 04:10:51;;;;;;;;;;;;;;;;;;5034318;28;19909;-24
2023/05/27 04:13:17;;;;;;;;;;;;;;;;;;5034092;28;19971;-25
2023/05/27 04:15:44;;;;;;;;;;;;;;;;;;5034423;28;19917;-24
2023/05/27 04:18:10;;;;;;;;;;;;;;;;;;5037161;28;19920;-23
2023/05/27 04:20:36;;;;;;;;;;;;;;;;;;5038271;28;19909;-23
2023/05/27 04:23:02;;;;;;;;;;;;;;;;;;5037936;28;19979;-23
2023/05/27 04:25:28;;;;;;;;;;;;;;;;;;5038113;28;19909;-24
2023/05/27 04:27:55;;;;;;;;;;;;;;;;;;5038081;28;19959;-24
2023/05/27 04:30:21;;;;;;;;;;;;;;;;;;5037944;28;20308;-26
2023/05/27 04:32:47;;;;;;;;;;;;;;;;;;5037928;28;19919;-23
2023/05/27 04:35:13;;;;;;;;;;;;;;;;;;5037664;28;19909;-22
2023/05/27 04:37:40;;;;;;;;;;;;;;;;;;5037794;28;20008;-21
2023/05/27 04:40:08;;;;;;;;;;;;;;;;;;5038138;28;19932;-22
2023/05/27 04:42:36;;;;;;;;;;;;;;;;;;5037730;28;19910;-27
2023/05/27 04:45:02;;;;;;;;;;;;;;;;;;5036654;28;19910;-21
2023/05/27 04:47:28;;;;;;;;;;;;;;;;;;5037846;28;19975;-27
2023/05/27 04:49:54;;;;;;;;;;;;;;;;;;5037550;28;19917;-27
2023/05/27 04:52:21;;;;;;;;;;;;;;;;;;5036400;28;20359;-25
2023/05/27 04:54:47;;;;;;;;;;;;;;;;;;5037500;28;20388;-21
2023/05/27 04:57:18;;;;;;;;;;;;;;;;;;5037741;28;20244;-28
2023/05/27 05:00:18;;;;;;;;;;;;;;;;;;5037537;28;20055;-26
2023/05/27 05:02:47;;;;;;;;;;;;;;;;;;5037457;28;19976;-25
2023/05/27 05:05:13;;;;;;;;;;;;;;;;;;5037299;28;19967;-26
2023/05/27 05:07:43;;;;;;;;;;;;;;;;;;5037251;28;20010;-22
2023/05/27 05:10:09;;;;;;;;;;;;;;;;;;5037268;28;19909;-31
2023/05/27 05:12:36;;;;;;;;;;;;;;;;;;5037457;28;20362;-24
2023/05/27 05:15:01;;;;;;;;;;;;;;;;;;5037091;28;19909;-21
2023/05/27 05:17:27;;;;;;;;;;;;;;;;;;5037050;28;19935;-29
2023/05/27 05:19:53;;;;;;;;;;;;;;;;;;5037130;28;20332;-23
2023/05/27 05:22:22;;;;;;;;;;;;;;;;;;5036880;28;19914;-28
2023/05/27 05:24:48;;;;;;;;;;;;;;;;;;5036839;28;19913;-23
2023/05/27 05:27:14;;;;;;;;;;;;;;;;;;5035881;28;19920;-20
2023/05/27 05:29:40;;;;;;;;;;;;;;;;;;5035656;28;19909;-21
2023/05/27 05:32:06;;;;;;;;;;;;;;;;;;5036884;28;19909;-28
2023/05/27 05:34:32;;;;;;;;;;;;;;;;;;5036658;28;19970;-23
2023/05/27 05:36:57;;;;;;;;;;;;;;;;;;5036759;28;19909;-23
2023/05/27 05:39:23;;;;;;;;;;;;;;;;;;5035785;28;19924;-22
2023/05/27 05:41:49;;;;;;;;;;;;;;;;;;5036655;28;19968;-23
2023/05/27 05:44:15;;;;;;;;;;;;;;;;;;5036473;28;19996;-23
2023/05/27 05:46:41;;;;;;;;;;;;;;;;;;5036999;28;20323;-22
2023/05/27 05:49:07;;;;;;;;;;;;;;;;;;5036160;28;19998;-25
2023/05/27 05:51:33;;;;;;;;;;;;;;;;;;5035295;28;19917;-21
2023/05/27 05:53:59;;;;;;;;;;;;;;;;;;5036469;28;19910;-22
2023/05/27 05:56:28;;;;;;;;;;;;;;;;;;5037010;28;20329;-22
2023/05/27 05:58:54;;;;;;;;;;;;;;;;;;5036358;28;19913;-27
2023/05/27 06:01:20;;;;;;;;;;;;;;;;;;5036252;28;20213;-25
2023/05/27 06:03:46;;;;;;;;;;;;;;;;;;5035952;28;19925;-22
2023/05/27 06:06:14;;;;;;;;;;;;;;;;;;5035295;28;20229;-26
2023/05/27 06:08:40;;;;;;;;;;;;;;;;;;5036268;28;19963;-21
2023/05/27 06:11:06;;;;;;;;;;;;;;;;;;5036144;28;20303;-21
2023/05/27 06:13:32;;;;;;;;;;;;;;;;;;5036134;28;20312;-25
2023/05/27 06:15:58;;;;;;;;;;;;;;;;;;5035896;28;19909;-25
2023/05/27 06:18:24;;;;;;;;;;;;;;;;;;5035742;28;20264;-25
2023/05/27 06:20:50;;;;;;;;;;;;;;;;;;5035761;28;19910;-27
2023/05/27 06:23:16;;;;;;;;;;;;;;;;;;5035520;28;19917;-25
2023/05/27 06:25:42;;;;;;;;;;;;;;;;;;5035660;28;20264;-20
2023/05/27 06:28:08;;;;;;;;;;;;;;;;;;5035601;28;19963;-23
2023/05/27 06:30:34;;;;;;;;;;;;;;;;;;5035571;28;19909;-26
2023/05/27 06:33:00;;;;;;;;;;;;;;;;;;5035403;28;20007;-26
2023/05/27 06:35:26;;;;;;;;;;;;;;;;;;5035437;28;19909;-26
2023/05/27 06:37:52;;;;;;;;;;;;;;;;;;5035433;28;19909;-22
2023/05/27 06:40:18;;;;;;;;;;;;;;;;;;5035593;28;19944;-20
2023/05/27 06:42:44;;;;;;;;;;;;;;;;;;5035311;28;19909;-25
2023/05/27 06:45:10;;;;;;;;;;;;;;;;;;5035540;28;20260;-20
2023/05/27 06:47:36;;;;;;;;;;;;;;;;;;5035543;28;19913;-19
2023/05/27 06:50:02;;;;;;;;;;;;;;;;;;5035488;28;20268;-25
2023/05/27 06:52:28;;;;;;;;;;;;;;;;;;5035471;28;20339;-27
2023/05/27 06:54:54;;;;;;;;;;;;;;;;;;5035111;28;20347;-24
2023/05/27 06:57:20;;;;;;;;;;;;;;;;;;5035474;28;20300;-23
2023/05/27 06:59:46;;;;;;;;;;;;;;;;;;5035237;28;19913;-25
2023/05/27 07:02:12;;;;;;;;;;;;;;;;;;5035076;28;20312;-24
2023/05/27 07:04:38;;;;;;;;;;;;;;;;;;5034833;28;19928;-24
2023/05/27 07:07:04;;;;;;;;;;;;;;;;;;5034884;28;20232;-22
2023/05/27 07:09:30;;;;;;;;;;;;;;;;;;5035050;28;20228;-24
2023/05/27 07:11:56;;;;;;;;;;;;;;;;;;5034775;28;20291;-26
2023/05/27 07:14:22;;;;;;;;;;;;;;;;;;5034825;28;20410;-24
2023/05/27 07:16:48;;;;;;;;;;;;;;;;;;5034775;28;19917;-24
2023/05/27 07:19:14;;;;;;;;;;;;;;;;;;5033735;28;19909;-21
2023/05/27 07:21:40;;;;;;;;;;;;;;;;;;5034951;28;20363;-23
2023/05/27 07:24:06;;;;;;;;;;;;;;;;;;5034503;28;19963;-26
2023/05/27 07:26:32;;;;;;;;;;;;;;;;;;5034746;28;19909;-22
2023/05/27 07:28:58;;;;;;;;;;;;;;;;;;5034795;28;19952;-22
2023/05/27 07:31:24;;;;;;;;;;;;;;;;;;5034716;28;19996;-23
2023/05/27 07:33:50;;;;;;;;;;;;;;;;;;5034509;28;19975;-26
2023/05/27 07:36:16;;;;;;;;;;;;;;;;;;5034585;28;19917;-21
2023/05/27 07:38:42;;;;;;;;;;;;;;;;;;5034505;28;20058;-26
2023/05/27 07:41:08;;;;;;;;;;;;;;;;;;5034385;28;19916;-25
2023/05/27 07:43:34;;;;;;;;;;;;;;;;;;5034459;28;20261;-25
2023/05/27 07:45:59;;;;;;;;;;;;;;;;;;5034694;28;19976;-20
2023/05/27 07:48:25;;;;;;;;;;;;;;;;;;5034347;28;20354;-22
2023/05/27 07:50:51;;;;;;;;;;;;;;;;;;5034589;28;20333;-22
2023/05/27 07:53:17;;;;;;;;;;;;;;;;;;5040392;28;20358;-22
2023/05/27 07:55:43;;;;;;;;;;;;;;;;;;5040867;28;20344;-26
2023/05/27 07:58:09;;;;;;;;;;;;;;;;;;5041209;28;20332;-22
2023/05/27 08:00:35;;;;;;;;;;;;;;;;;;5041049;28;20275;-21
2023/05/27 08:03:01;;;;;;;;;;;;;;;;;;5040647;28;19940;-23
2023/05/27 08:05:27;;;;;;;;;;;;;;;;;;5041154;28;19974;-23
2023/05/27 08:07:53;;;;;;;;;;;;;;;;;;5040868;28;19909;-24
2023/05/27 08:10:19;;;;;;;;;;;;;;;;;;5040884;28;19908;-22
2023/05/27 08:12:45;;;;;;;;;;;;;;;;;;5040841;28;19984;-23
2023/05/27 08:15:11;;;;;;;;;;;;;;;;;;5041232;28;20019;-21
2023/05/27 08:17:37;;;;;;;;;;;;;;;;;;5040854;28;19913;-23
2023/05/27 08:20:04;;;;;;;;;;;;;;;;;;5041104;28;19909;-25
2023/05/27 08:22:30;;;;;;;;;;;;;;;;;;5041070;28;19932;-21
2023/05/27 08:24:56;;;;;;;;;;;;;;;;;;5040870;28;19913;-29
2023/05/27 08:27:22;;;;;;;;;;;;;;;;;;5040776;28;20015;-28
2023/05/27 08:29:47;;;;;;;;;;;;;;;;;;5040876;28;20024;-22
2023/05/27 08:32:13;;;;;;;;;;;;;;;;;;5040817;28;19924;-25
2023/05/27 08:34:41;;;;;;;;;;;;;;;;;;5041767;28;20001;-27
2023/05/27 08:37:07;;;;;;;;;;;;;;;;;;5040708;28;20244;-29
2023/05/27 08:39:33;;;;;;;;;;;;;;;;;;5040585;28;19909;-23
2023/05/27 08:42:02;;;;;;;;;;;;;;;;;;5040577;28;19916;-25
2023/05/27 08:44:28;;;;;;;;;;;;;;;;;;5040567;28;19939;-23
2023/05/27 08:46:54;;;;;;;;;;;;;;;;;;5040529;28;19995;-23
2023/05/27 08:49:20;;;;;;;;;;;;;;;;;;5040545;28;19909;-24
2023/05/27 08:51:46;;;;;;;;;;;;;;;;;;5040493;28;19913;-20
2023/05/27 08:54:12;;;;;;;;;;;;;;;;;;5040541;28;19919;-29
2023/05/27 08:56:38;;;;;;;;;;;;;;;;;;5040491;28;20000;-21
2023/05/27 08:59:04;;;;;;;;;;;;;;;;;;5040494;28;19920;-30
2023/05/27 09:01:30;;;;;;;;;;;;;;;;;;5040809;28;19909;-30
2023/05/27 09:03:56;;;;;;;;;;;;;;;;;;5038303;28;19921;-24
2023/05/27 09:06:22;;;;;;;;;;;;;;;;;;5037448;28;19909;-23
2023/05/27 09:08:48;;;;;;;;;;;;;;;;;;5037381;28;19909;-24
2023/05/27 09:11:14;;;;;;;;;;;;;;;;;;5037356;28;19909;-23
2023/05/27 09:13:40;;;;;;;;;;;;;;;;;;5037156;28;19995;-27
2023/05/27 09:16:06;;;;;;;;;;;;;;;;;;5037181;28;19956;-25
2023/05/27 09:18:32;;;;;;;;;;;;;;;;;;5037362;28;19909;-27
2023/05/27 09:20:58;;;;;;;;;;;;;;;;;;5037030;28;19909;-31
2023/05/27 09:23:24;;;;;;;;;;;;;;;;;;5036899;28;20011;-25
2023/05/27 09:25:50;;;;;;;;;;;;;;;;;;5036962;28;19948;-24
2023/05/27 09:28:16;;;;;;;;;;;;;;;;;;5037067;28;19913;-22
2023/05/27 09:30:42;;;;;;;;;;;;;;;;;;5037046;28;19909;-23
2023/05/27 09:33:08;;;;;;;;;;;;;;;;;;5036880;28;19978;-26
2023/05/27 09:35:34;;;;;;;;;;;;;;;;;;5036866;28;19909;-25
2023/05/27 09:38:00;;;;;;;;;;;;;;;;;;5036852;28;19992;-23
2023/05/27 09:40:26;;;;;;;;;;;;;;;;;;5036743;28;19916;-29
2023/05/27 09:42:52;;;;;;;;;;;;;;;;;;5036797;28;19909;-23
2023/05/27 09:45:18;;;;;;;;;;;;;;;;;;5036941;28;19945;-24
2023/05/27 09:47:44;;;;;;;;;;;;;;;;;;5036928;28;19910;-20
2023/05/27 09:50:09;;;;;;;;;;;;;;;;;;5036889;28;19976;-25
2023/05/27 09:52:36;;;;;;;;;;;;;;;;;;5036551;28;19920;-22
2023/05/27 09:55:02;;;;;;;;;;;;;;;;;;5036569;28;19920;-24
2023/05/27 09:57:28;;;;;;;;;;;;;;;;;;5036449;28;19910;-24
2023/05/27 09:59:54;;;;;;;;;;;;;;;;;;5036370;28;19909;-28
2023/05/27 10:02:20;;;;;;;;;;;;;;;;;;5036245;28;19917;-24
2023/05/27 10:04:48;;;;;;;;;;;;;;;;;;5036023;28;19928;-25
2023/05/27 10:07:14;;;;;;;;;;;;;;;;;;5036403;28;19919;-25
2023/05/27 10:09:39;;;;;;;;;;;;;;;;;;5036231;28;19920;-24
2023/05/27 10:12:05;;;;;;;;;;;;;;;;;;5036453;28;19909;-26
2023/05/27 10:14:31;;;;;;;;;;;;;;;;;;5035672;28;19963;-23
2023/05/27 10:16:57;;;;;;;;;;;;;;;;;;5036044;28;19952;-22
2023/05/27 10:19:23;;;;;;;;;;;;;;;;;;5036321;28;19920;-22
2023/05/27 10:21:49;;;;;;;;;;;;;;;;;;5036210;28;20350;-23
2023/05/27 10:24:16;;;;;;;;;;;;;;;;;;5035972;28;19913;-25
2023/05/27 10:26:42;;;;;;;;;;;;;;;;;;5035852;28;19917;-24
2023/05/27 10:29:08;;;;;;;;;;;;;;;;;;5036016;28;19910;-23
2023/05/27 10:31:36;;;;;;;;;;;;;;;;;;5035788;28;19920;-25
2023/05/27 10:34:02;;;;;;;;;;;;;;;;;;5035607;28;19963;-23
2023/05/27 10:36:31;;;;;;;;;;;;;;;;;;5035599;28;19909;-28
2023/05/27 10:38:57;;;;;;;;;;;;;;;;;;5036580;28;19913;-22
2023/05/27 10:41:23;;;;;;;;;;;;;;;;;;5035624;28;19995;-25
2023/05/27 10:43:49;;;;;;;;;;;;;;;;;;5034350;28;20267;-22
2023/05/27 10:46:15;;;;;;;;;;;;;;;;;;5035434;28;20364;-28
2023/05/27 10:48:41;;;;;;;;;;;;;;;;;;5035364;28;20267;-22
2023/05/27 10:51:07;;;;;;;;;;;;;;;;;;5035255;28;19913;-21
2023/05/27 10:53:33;;;;;;;;;;;;;;;;;;5035269;28;19966;-23
2023/05/27 10:55:59;;;;;;;;;;;;;;;;;;5035397;28;20003;-20
2023/05/27 10:58:25;;;;;;;;;;;;;;;;;;5035337;28;19916;-22
2023/05/27 11:00:51;;;;;;;;;;;;;;;;;;5035200;28;20263;-28
2023/05/27 11:03:17;;;;;;;;;;;;;;;;;;5034877;28;19928;-25
2023/05/27 11:05:43;;;;;;;;;;;;;;;;;;5035510;28;19910;-22
2023/05/27 11:08:09;;;;;;;;;;;;;;;;;;5035192;28;19916;-25
2023/05/27 11:10:35;;;;;;;;;;;;;;;;;;5034649;28;19913;-24
2023/05/27 11:13:01;;;;;;;;;;;;;;;;;;5035094;28;19920;-26
2023/05/27 11:15:27;;;;;;;;;;;;;;;;;;5035089;28;19917;-24
2023/05/27 11:17:53;;;;;;;;;;;;;;;;;;5034129;28;20000;-22
2023/05/27 11:20:20;;;;;;;;;;;;;;;;;;5035064;28;19996;-27
2023/05/27 11:22:46;;;;;;;;;;;;;;;;;;5034881;28;19948;-26
2023/05/27 11:25:12;;;;;;;;;;;;;;;;;;5034515;28;19936;-20
2023/05/27 11:27:38;;;;;;;;;;;;;;;;;;5034341;28;20336;-20
2023/05/27 11:30:05;;;;;;;;;;;;;;;;;;5034887;28;20003;-24
2023/05/27 11:32:31;;;;;;;;;;;;;;;;;;5035102;28;19909;-22
2023/05/27 11:34:57;;;;;;;;;;;;;;;;;;5034852;28;19940;-25
2023/05/27 11:37:22;;;;;;;;;;;;;;;;;;5034789;28;20268;-25
2023/05/27 11:39:48;;;;;;;;;;;;;;;;;;5034757;28;19980;-25
2023/05/27 11:42:14;;;;;;;;;;;;;;;;;;5034665;28;19909;-22
2023/05/27 11:44:40;;;;;;;;;;;;;;;;;;5034644;28;20292;-23
2023/05/27 11:47:06;;;;;;;;;;;;;;;;;;5034669;28;19917;-24
2023/05/27 11:49:32;;;;;;;;;;;;;;;;;;5034916;28;19909;-20
2023/05/27 11:51:59;;;;;;;;;;;;;;;;;;5034595;28;20344;-22
2023/05/27 11:54:24;;;;;;;;;;;;;;;;;;5034618;28;19916;-27
2023/05/27 11:56:50;;;;;;;;;;;;;;;;;;5034584;28;20349;-24
2023/05/27 11:59:16;;;;;;;;;;;;;;;;;;5034626;28;20266;-21
2023/05/27 12:01:42;;;;;;;;;;;;;;;;;;5034587;28;20237;-22
2023/05/27 12:04:08;;;;;;;;;;;;;;;;;;5038335;28;20248;-22
2023/05/27 12:06:35;;;;;;;;;;;;;;;;;;5034782;28;20293;-21
2023/05/27 12:09:03;;;;;;;;;;;;;;;;;;5033795;28;20280;-22
2023/05/27 12:11:29;;;;;;;;;;;;;;;;;;5034535;28;19996;-25
2023/05/27 12:13:55;;;;;;;;;;;;;;;;;;5034422;28;19971;-29
2023/05/27 12:16:21;;;;;;;;;;;;;;;;;;5034422;28;19913;-25
2023/05/27 12:18:47;;;;;;;;;;;;;;;;;;5034345;28;20000;-22
2023/05/27 12:21:13;;;;;;;;;;;;;;;;;;5034633;28;19916;-21
2023/05/27 12:23:39;;;;;;;;;;;;;;;;;;5034204;28;19913;-25
2023/05/27 12:26:05;;;;;;;;;;;;;;;;;;5034584;28;19909;-22
2023/05/27 12:28:31;;;;;;;;;;;;;;;;;;5034622;28;20317;-25
2023/05/27 12:30:57;;;;;;;;;;;;;;;;;;5034487;28;19920;-26
2023/05/27 12:33:23;;;;;;;;;;;;;;;;;;5034209;28;19977;-23
2023/05/27 12:35:49;;;;;;;;;;;;;;;;;;5034485;28;19924;-24
2023/05/27 12:38:15;;;;;;;;;;;;;;;;;;5035411;28;19919;-24
2023/05/27 12:40:41;;;;;;;;;;;;;;;;;;5038195;28;19913;-23
2023/05/27 12:43:07;;;;;;;;;;;;;;;;;;5037815;28;19933;-26
2023/05/27 12:45:33;;;;;;;;;;;;;;;;;;5037902;28;19940;-29
2023/05/27 12:47:59;;;;;;;;;;;;;;;;;;5038128;28;19920;-24
2023/05/27 12:50:25;;;;;;;;;;;;;;;;;;5037845;28;19947;-21
2023/05/27 12:52:52;;;;;;;;;;;;;;;;;;5037702;28;19909;-22
2023/05/27 12:55:18;;;;;;;;;;;;;;;;;;5036772;28;19939;-24
2023/05/27 12:57:44;;;;;;;;;;;;;;;;;;5037718;28;20001;-25
2023/05/27 13:00:11;;;;;;;;;;;;;;;;;;5037648;28;19941;-22
2023/05/27 13:02:38;;;;;;;;;;;;;;;;;;5037750;28;19975;-26
2023/05/27 13:05:04;;;;;;;;;;;;;;;;;;5037268;28;19937;-22
2023/05/27 13:07:30;;;;;;;;;;;;;;;;;;5037769;28;19913;-24
2023/05/27 13:09:56;;;;;;;;;;;;;;;;;;5038391;28;20371;-24
2023/05/27 13:12:22;;;;;;;;;;;;;;;;;;5037625;28;19963;-25
2023/05/27 13:14:48;;;;;;;;;;;;;;;;;;5037377;28;19920;-23
2023/05/27 13:17:14;;;;;;;;;;;;;;;;;;5037318;28;19996;-23
2023/05/27 13:19:40;;;;;;;;;;;;;;;;;;5037294;28;19963;-24
2023/05/27 13:22:06;;;;;;;;;;;;;;;;;;5037174;28;19919;-22
2023/05/27 13:24:32;;;;;;;;;;;;;;;;;;5037117;28;19963;-28
2023/05/27 13:26:58;;;;;;;;;;;;;;;;;;5037137;28;19909;-27
2023/05/27 13:29:24;;;;;;;;;;;;;;;;;;5037103;28;19966;-24
2023/05/27 13:31:50;;;;;;;;;;;;;;;;;;5037254;28;19913;-23
2023/05/27 13:34:16;;;;;;;;;;;;;;;;;;5036960;28;20256;-20
2023/05/27 13:36:42;;;;;;;;;;;;;;;;;;5036927;28;19916;-23
2023/05/27 13:39:07;;;;;;;;;;;;;;;;;;5036917;28;19917;-22
2023/05/27 13:41:33;;;;;;;;;;;;;;;;;;5036893;28;19909;-23
2023/05/27 13:43:59;;;;;;;;;;;;;;;;;;5036698;28;19924;-25
2023/05/27 13:46:25;;;;;;;;;;;;;;;;;;5036719;28;19909;-30
2023/05/27 13:48:51;;;;;;;;;;;;;;;;;;5036891;28;19922;-28
2023/05/27 13:51:17;;;;;;;;;;;;;;;;;;5035921;28;19996;-24
2023/05/27 13:53:43;;;;;;;;;;;;;;;;;;5036592;28;19955;-26
2023/05/27 13:56:09;;;;;;;;;;;;;;;;;;5036590;28;20209;-25
2023/05/27 13:58:35;;;;;;;;;;;;;;;;;;5036581;28;19909;-25
2023/05/27 14:01:01;;;;;;;;;;;;;;;;;;5036792;28;19909;-27
2023/05/27 14:03:27;;;;;;;;;;;;;;;;;;5036217;28;19924;-25
2023/05/27 14:05:53;;;;;;;;;;;;;;;;;;5036476;28;20264;-22
2023/05/27 14:08:19;;;;;;;;;;;;;;;;;;5036649;28;20295;-28
2023/05/27 14:10:45;;;;;;;;;;;;;;;;;;5036562;28;20283;-27
2023/05/27 14:13:11;;;;;;;;;;;;;;;;;;5036207;28;20320;-22
2023/05/27 14:15:37;;;;;;;;;;;;;;;;;;5036208;28;20379;-25
2023/05/27 14:18:04;;;;;;;;;;;;;;;;;;5036140;28;20359;-24
2023/05/27 14:20:30;;;;;;;;;;;;;;;;;;5036437;28;19916;-24
2023/05/27 14:22:59;;;;;;;;;;;;;;;;;;5035946;28;19913;-24
2023/05/27 14:25:24;;;;;;;;;;;;;;;;;;5036066;28;19917;-24
2023/05/27 14:27:50;;;;;;;;;;;;;;;;;;5035960;28;19910;-26
2023/05/27 14:30:17;;;;;;;;;;;;;;;;;;5035961;28;19928;-24
2023/05/27 14:32:43;;;;;;;;;;;;;;;;;;5035883;28;19909;-24
2023/05/27 14:35:09;;;;;;;;;;;;;;;;;;5036099;28;20342;-28
2023/05/27 14:37:35;;;;;;;;;;;;;;;;;;5035858;28;19909;-23
2023/05/27 14:40:01;;;;;;;;;;;;;;;;;;5035768;28;19941;-22
2023/05/27 14:42:27;;;;;;;;;;;;;;;;;;5035600;28;20020;-23
2023/05/27 14:44:53;;;;;;;;;;;;;;;;;;5035574;28;19964;-25
2023/05/27 14:47:21;;;;;;;;;;;;;;;;;;5035625;28;19909;-23
2023/05/27 14:49:47;;;;;;;;;;;;;;;;;;5035865;28;19917;-27
2023/05/27 14:52:13;;;;;;;;;;;;;;;;;;5035674;28;20255;-26
2023/05/27 14:54:39;;;;;;;;;;;;;;;;;;5035528;28;19936;-29
2023/05/27 14:57:05;;;;;;;;;;;;;;;;;;5035493;28;19913;-26
2023/05/27 14:59:31;;;;;;;;;;;;;;;;;;5035466;28;19909;-29
2023/05/27 15:01:57;;;;;;;;;;;;;;;;;;5035432;28;19921;-23
2023/05/27 15:04:23;;;;;;;;;;;;;;;;;;5035089;28;19975;-25
2023/05/27 15:06:49;;;;;;;;;;;;;;;;;;5035498;28;19922;-24
2023/05/27 15:09:17;;;;;;;;;;;;;;;;;;5035499;28;20312;-22
2023/05/27 15:11:42;;;;;;;;;;;;;;;;;;5035254;28;19967;-28
2023/05/27 15:14:09;;;;;;;;;;;;;;;;;;5035305;28;20388;-28
2023/05/27 15:16:35;;;;;;;;;;;;;;;;;;5035441;28;19970;-20
2023/05/27 15:19:01;;;;;;;;;;;;;;;;;;5034114;28;19991;-23
2023/05/27 15:21:27;;;;;;;;;;;;;;;;;;5035007;28;19913;-24
2023/05/27 15:23:53;;;;;;;;;;;;;;;;;;5034896;28;20007;-24
2023/05/27 15:26:19;;;;;;;;;;;;;;;;;;5034874;28;19909;-28
2023/05/27 15:28:45;;;;;;;;;;;;;;;;;;5034979;28;19909;-25
2023/05/27 15:31:10;;;;;;;;;;;;;;;;;;5035382;28;20317;-22
2023/05/27 15:33:36;;;;;;;;;;;;;;;;;;5034838;28;19948;-21
2023/05/27 15:36:03;;;;;;;;;;;;;;;;;;5035117;28;19916;-24
2023/05/27 15:38:29;;;;;;;;;;;;;;;;;;5034858;28;20306;-22
2023/05/27 15:40:55;;;;;;;;;;;;;;;;;;5034783;28;20240;-24
2023/05/27 15:43:21;;;;;;;;;;;;;;;;;;5034576;28;19963;-28
2023/05/27 15:45:47;;;;;;;;;;;;;;;;;;5034771;28;19913;-25
2023/05/27 15:48:13;;;;;;;;;;;;;;;;;;5034654;28;19908;-25
2023/05/27 15:50:39;;;;;;;;;;;;;;;;;;5034713;28;20260;-27
2023/05/27 15:53:05;;;;;;;;;;;;;;;;;;5034581;28;19917;-26
2023/05/27 15:55:31;;;;;;;;;;;;;;;;;;5034675;28;19917;-25
2023/05/27 15:57:57;;;;;;;;;;;;;;;;;;5034610;28;19940;-25
2023/05/27 16:00:23;;;;;;;;;;;;;;;;;;5034556;28;19909;-26
2023/05/27 16:02:49;;;;;;;;;;;;;;;;;;5034526;28;19971;-24
2023/05/27 16:05:15;;;;;;;;;;;;;;;;;;5034350;28;20306;-27
2023/05/27 16:07:43;;;;;;;;;;;;;;;;;;5034770;28;19952;-25
2023/05/27 16:10:09;;;;;;;;;;;;;;;;;;5035282;28;19941;-21
2023/05/27 16:12:34;;;;;;;;;;;;;;;;;;5034625;28;19905;-21
2023/05/27 16:15:00;;;;;;;;;;;;;;;;;;5038510;28;19909;-23
2023/05/27 16:17:29;;;;;;;;;;;;;;;;;;5038469;28;19909;-27
2023/05/27 16:19:55;;;;;;;;;;;;;;;;;;5038657;28;20264;-24
2023/05/27 16:22:21;;;;;;;;;;;;;;;;;;5038551;28;19905;-21
2023/05/27 16:24:47;;;;;;;;;;;;;;;;;;5038253;28;20360;-24
2023/05/27 16:27:13;;;;;;;;;;;;;;;;;;5038759;28;20324;-24
2023/05/27 16:29:39;;;;;;;;;;;;;;;;;;5038264;28;20004;-26
2023/05/27 16:32:05;;;;;;;;;;;;;;;;;;5038191;28;20362;-27
2023/05/27 16:34:31;;;;;;;;;;;;;;;;;;5038053;28;20012;-24
2023/05/27 16:36:57;;;;;;;;;;;;;;;;;;5038130;28;20000;-24
2023/05/27 16:39:23;;;;;;;;;;;;;;;;;;5037999;28;19909;-25